Time;durP1;ratioP1;P1;durP2;ratioP2;P2;SDS_P1;SDS_P2;PMS_P1;PMS_P2;Temp;Humidity;BMP_temperature;BMP_pressure;BME280_temperature;BME280_humidity;BME280_pressure;Samples;Min_cycle;Max_cycle;Signal;HPM_P1;HPM_P2
2021/10/26 11:30:46;;;;;;;4.95;1.25;;;10.40;99.90;;;;;;5437040;22;20506;-66
2021/10/26 11:33:15;;;;;;;2.78;0.80;;;10.00;99.90;;;;;;5054614;28;20032;-66
2021/10/26 11:35:49;;;;;;;4.90;0.80;;;9.80;99.90;;;;;;5070089;28;20021;-67
2021/10/26 11:38:18;;;;;;;4.72;0.80;;;9.60;99.90;;;;;;5054876;28;20167;-67
2021/10/26 11:40:54;;;;;;;2.80;0.80;;;9.50;99.90;;;;;;5054535;28;20025;-67
2021/10/26 11:43:20;;;;;;;3.40;0.70;;;9.40;99.90;;;;;;5054204;28;20029;-66
2021/10/26 11:46:03;;;;;;;1.48;0.77;;;9.40;99.90;;;;;;5054503;28;20493;-66
2021/10/26 11:48:42;;;;;;;4.25;1.02;;;9.30;99.90;;;;;;5054398;28;20029;-67
2021/10/26 11:51:30;;;;;;;4.57;1.15;;;9.30;99.90;;;;;;5054181;28;20395;-67
2021/10/26 11:54:00;;;;;;;3.92;1.10;;;9.30;99.90;;;;;;5054376;28;20479;-67
2021/10/26 11:56:50;;;;;;;4.70;1.60;;;9.30;99.90;;;;;;5053426;28;20032;-66
2021/10/26 11:59:21;;;;;;;5.20;1.02;;;9.40;99.90;;;;;;5054362;28;20150;-67
2021/10/26 12:02:06;;;;;;;13.65;1.55;;;9.40;99.90;;;;;;5053714;28;20439;-67
2021/10/26 12:04:36;;;;;;;7.97;1.23;;;9.40;99.90;;;;;;5054405;28;20059;-67
2021/10/26 12:07:03;;;;;;;11.25;2.05;;;9.40;99.90;;;;;;5054178;28;20032;-67
2021/10/26 12:09:34;;;;;;;7.40;1.52;;;9.40;99.90;;;;;;5053830;28;20075;-67
2021/10/26 12:12:05;;;;;;;7.07;1.73;;;9.40;99.90;;;;;;5053475;28;20380;-67
2021/10/26 12:14:36;;;;;;;8.60;1.20;;;9.40;99.90;;;;;;5054183;28;20372;-67
2021/10/26 12:17:09;;;;;;;7.47;1.23;;;9.40;99.90;;;;;;5054398;28;20016;-65
2021/10/26 12:19:45;;;;;;;5.03;1.60;;;9.40;99.90;;;;;;5053871;28;20387;-65
2021/10/26 12:22:27;;;;;;;6.68;1.63;;;9.40;99.90;;;;;;5053812;28;20025;-66
2021/10/26 12:25:00;;;;;;;3.55;1.38;;;9.30;99.90;;;;;;5054018;28;20024;-67
2021/10/26 12:27:29;;;;;;;5.05;1.55;;;9.40;99.90;;;;;;5054024;28;20489;-67
2021/10/26 12:29:55;;;;;;;9.38;1.35;;;9.40;99.90;;;;;;5053338;28;20071;-67
2021/10/26 12:32:23;;;;;;;6.35;1.48;;;9.50;99.90;;;;;;5053873;28;20047;-67
2021/10/26 12:34:49;;;;;;;7.85;1.60;;;9.50;99.90;;;;;;5053823;28;20100;-67
2021/10/26 12:37:32;;;;;;;3.35;1.23;;;9.50;99.90;;;;;;5053237;28;20437;-67
2021/10/26 12:40:00;;;;;;;10.37;2.50;;;9.60;99.90;;;;;;5053604;28;20032;-67
2021/10/26 12:42:41;;;;;;;5.20;1.80;;;9.70;99.90;;;;;;5053421;28;20549;-67
2021/10/26 12:45:09;;;;;;;5.38;1.30;;;9.70;99.90;;;;;;5053711;28;20029;-67
2021/10/26 12:47:59;;;;;;;10.43;1.75;;;9.70;99.90;;;;;;5052831;28;20514;-67
2021/10/26 12:50:52;;;;;;;7.43;1.35;;;9.70;99.90;;;;;;5053486;28;20029;-68
2021/10/26 12:53:22;;;;;;;8.98;1.38;;;9.70;99.90;;;;;;5053330;28;20102;-67
2021/10/26 12:55:53;;;;;;;11.73;1.50;;;9.70;99.90;;;;;;5053178;28;20025;-67
2021/10/26 12:58:42;;;;;;;6.10;1.48;;;9.70;99.90;;;;;;5050871;28;20075;-67
2021/10/26 13:01:29;;;;;;;11.90;1.73;;;9.60;99.90;;;;;;5033542;28;20032;-67
2021/10/26 13:04:14;;;;;;;13.82;2.13;;;9.50;99.90;;;;;;5046825;28;20035;-66
2021/10/26 13:06:52;;;;;;;10.52;2.85;;;9.60;99.90;;;;;;5043768;28;20040;-67
2021/10/26 13:09:50;;;;;;;5.38;1.65;;;9.50;99.90;;;;;;5045853;28;20017;-67
2021/10/26 13:12:29;;;;;;;8.18;1.70;;;9.60;99.90;;;;;;5050090;28;20017;-67
2021/10/26 13:15:08;;;;;;;13.20;1.60;;;9.50;99.90;;;;;;5044578;28;20027;-67
2021/10/26 13:17:42;;;;;;;9.80;1.88;;;9.60;99.90;;;;;;5043624;28;20529;-67
2021/10/26 13:20:33;;;;;;;;;;;9.60;99.90;;;;;;5048723;28;20039;-67
2021/10/26 13:23:04;;;;;;;11.10;1.65;;;9.60;99.90;;;;;;5043324;28;19959;-67
2021/10/26 13:25:39;;;;;;;7.53;2.17;;;9.60;99.90;;;;;;5041983;28;20025;-68
2021/10/26 13:28:07;;;;;;;5.25;1.70;;;9.70;99.90;;;;;;5045312;28;20033;-67
2021/10/26 13:30:43;;;;;;;11.30;2.85;;;9.70;99.90;;;;;;5049993;28;20063;-68
2021/10/26 13:33:08;;;;;;;11.75;2.75;;;9.60;99.90;;;;;;5041236;28;20017;-68
2021/10/26 13:35:34;;;;;;;13.30;2.40;;;9.60;99.90;;;;;;5046611;28;20048;-68
2021/10/26 13:37:59;;;;;;;21.00;3.88;;;9.70;99.90;;;;;;5042047;28;20025;-70
2021/10/26 13:40:25;;;;;;;21.33;5.20;;;9.80;99.90;;;;;;5039293;28;20044;-69
2021/10/26 13:42:51;;;;;;;18.08;5.45;;;9.80;99.90;;;;;;5046711;28;20025;-69
2021/10/26 13:45:16;;;;;;;21.10;4.47;;;9.90;99.90;;;;;;5046613;28;20035;-69
2021/10/26 13:47:46;;;;;;;18.95;4.32;;;10.00;99.90;;;;;;5047621;28;20025;-69
2021/10/26 13:50:13;;;;;;;24.52;4.43;;;10.00;99.90;;;;;;5043002;28;20032;-70
2021/10/26 13:52:39;;;;;;;24.38;5.50;;;10.10;99.90;;;;;;5041309;28;20053;-69
2021/10/26 13:55:09;;;;;;;23.13;5.07;;;10.10;99.90;;;;;;5059314;28;20034;-69
2021/10/26 13:57:37;;;;;;;18.05;5.28;;;10.20;99.90;;;;;;5047035;28;20013;-70
2021/10/26 14:00:09;;;;;;;22.67;7.18;;;10.20;99.90;;;;;;5048210;28;20044;-68
2021/10/26 14:02:36;;;;;;;38.08;11.75;;;10.20;99.90;;;;;;5043969;28;20029;-67
2021/10/26 14:05:03;;;;;;;43.30;12.32;;;10.20;99.90;;;;;;5041316;28;20029;-67
2021/10/26 14:07:29;;;;;;;34.28;12.55;;;10.30;99.90;;;;;;5039157;28;20038;-67
2021/10/26 14:09:55;;;;;;;46.63;14.07;;;10.40;99.90;;;;;;5047111;28;20471;-68
2021/10/26 14:12:20;;;;;;;52.78;16.00;;;10.50;99.90;;;;;;5047650;28;20395;-68
2021/10/26 14:14:46;;;;;;;45.80;15.80;;;10.60;99.90;;;;;;5043102;28;20034;-67
2021/10/26 14:17:11;;;;;;;77.72;19.90;;;10.70;99.90;;;;;;5043910;28;20043;-68
2021/10/26 14:19:37;;;;;;;55.88;17.00;;;10.90;99.90;;;;;;5048371;28;20032;-67
2021/10/26 14:22:03;;;;;;;48.42;17.23;;;11.10;99.90;;;;;;5049610;28;20029;-67
2021/10/26 14:24:32;;;;;;;56.70;15.10;;;11.20;99.90;;;;;;5044027;28;20033;-68
2021/10/26 14:26:59;;;;;;;62.58;14.13;;;11.30;99.90;;;;;;5049038;28;20029;-67
2021/10/26 14:29:25;;;;;;;60.30;12.68;;;11.40;99.90;;;;;;5047697;28;20102;-67
2021/10/26 14:31:51;;;;;;;63.30;12.65;;;11.40;99.90;;;;;;5044534;28;20457;-67
2021/10/26 14:34:20;;;;;;;52.15;11.90;;;11.40;99.90;;;;;;5046772;28;20021;-68
2021/10/26 14:36:58;;;;;;;52.65;11.70;;;11.40;99.90;;;;;;5046782;28;20129;-67
2021/10/26 14:39:51;;;;;;;53.10;11.20;;;11.50;99.90;;;;;;5038911;28;20033;-67
2021/10/26 14:53:15;;;;;;;33.22;7.32;;;11.50;99.90;;;;;;5045563;28;20082;-69
2021/10/26 14:55:59;;;;;;;45.45;9.70;;;11.50;99.90;;;;;;5042543;28;20562;-68
2021/10/26 14:58:26;;;;;;;39.13;9.10;;;11.50;99.90;;;;;;5047465;28;20061;-68
2021/10/26 15:00:55;;;;;;;54.00;8.23;;;11.50;99.90;;;;;;5046097;28;20434;-68
2021/10/26 15:03:22;;;;;;;41.97;7.60;;;11.60;99.90;;;;;;5045564;28;20029;-68
2021/10/26 15:05:48;;;;;;;56.13;8.52;;;11.60;99.90;;;;;;5047572;28;20391;-68
2021/10/26 15:08:14;;;;;;;41.53;8.68;;;11.60;99.90;;;;;;5043577;28;20037;-68
2021/10/26 15:13:15;;;;;;;39.75;7.75;;;11.60;99.90;;;;;;5052428;28;20025;-67
2021/10/26 15:15:40;;;;;;;49.78;8.38;;;11.60;99.90;;;;;;5054895;28;20025;-67
2021/10/26 15:18:06;;;;;;;44.75;10.23;;;11.70;99.90;;;;;;5069928;28;20108;-67
2021/10/26 15:20:37;;;;;;;47.42;9.45;;;11.70;99.90;;;;;;5051987;28;20479;-67
2021/10/26 15:23:07;;;;;;;49.25;11.55;;;11.70;99.90;;;;;;5050642;28;20029;-67
2021/10/26 15:33:13;;;;;;;47.28;6.38;;;11.70;99.90;;;;;;5052681;28;20036;-67
2021/10/26 15:33:35;;;;;;;51.90;8.00;;;11.70;99.90;;;;;;5053987;28;20051;-67
2021/10/26 15:36:01;;;;;;;49.15;9.10;;;11.70;99.90;;;;;;5054151;28;20020;-68
2021/10/26 15:38:28;;;;;;;39.10;7.63;;;11.70;99.90;;;;;;5053604;28;20021;-68
2021/10/26 15:40:56;;;;;;;50.75;8.40;;;11.60;99.90;;;;;;5053856;28;20021;-68
2021/10/26 15:43:22;;;;;;;41.90;7.00;;;11.60;99.90;;;;;;5054038;28;20044;-67
2021/10/26 15:45:48;;;;;;;48.08;8.27;;;11.60;99.90;;;;;;5053865;28;20025;-67
2021/10/26 15:48:14;;;;;;;42.75;7.25;;;11.50;99.90;;;;;;5054101;28;20021;-67
2021/10/26 15:50:40;;;;;;;45.33;7.75;;;11.50;99.90;;;;;;5054217;28;20021;-67
2021/10/26 15:53:07;;;;;;;43.55;6.70;;;11.50;99.90;;;;;;5053846;28;20570;-68
2021/10/26 15:55:33;;;;;;;41.78;6.97;;;11.40;99.90;;;;;;5052290;28;20029;-68
2021/10/26 15:58:00;;;;;;;30.13;7.75;;;11.30;99.90;;;;;;5054176;28;20075;-68
2021/10/26 16:00:28;;;;;;;32.50;6.35;;;11.30;99.90;;;;;;5047900;28;20112;-68
2021/10/26 16:02:57;;;;;;;30.98;6.00;;;11.20;99.90;;;;;;5054410;28;20025;-68
2021/10/26 16:05:22;;;;;;;38.53;6.72;;;11.10;99.90;;;;;;5051662;28;20044;-68
2021/10/26 16:07:48;;;;;;;26.90;5.85;;;11.10;99.90;;;;;;5054037;28;20024;-68
2021/10/26 16:12:48;;;;;;;36.70;5.45;;;11.10;99.90;;;;;;5054008;28;20129;-68
2021/10/26 16:15:28;;;;;;;29.88;5.30;;;11.10;99.90;;;;;;5049170;28;20113;-68
2021/10/26 16:17:53;;;;;;;21.63;4.75;;;11.00;99.90;;;;;;5053561;28;20021;-68
2021/10/26 16:20:20;;;;;;;25.05;6.18;;;11.00;99.90;;;;;;5053764;28;20028;-68
2021/10/26 16:22:46;;;;;;;23.27;5.30;;;11.00;99.90;;;;;;5053768;28;20036;-68
2021/10/26 16:25:13;;;;;;;24.25;5.97;;;11.00;99.90;;;;;;5053652;28;20484;-68
2021/10/26 16:27:39;;;;;;;19.80;4.75;;;11.00;99.90;;;;;;5053397;28;20037;-67
2021/10/26 16:30:08;;;;;;;28.88;6.72;;;11.00;99.90;;;;;;5053439;28;20475;-67
2021/10/26 16:32:34;;;;;;;25.00;6.35;;;11.10;99.90;;;;;;5053274;28;20016;-67
2021/10/26 16:35:01;;;;;;;38.92;9.07;;;11.20;99.90;;;;;;5049318;28;20052;-67
2021/10/26 16:37:28;;;;;;;51.22;10.05;;;11.20;99.90;;;;;;5033075;28;20014;-68
2021/10/26 16:39:57;;;;;;;50.47;11.10;;;11.30;99.90;;;;;;5033468;28;20021;-67
2021/10/26 16:42:30;;;;;;;54.03;12.85;;;11.30;99.90;;;;;;5034366;28;20487;-67
2021/10/26 16:44:58;;;;;;;50.40;12.38;;;11.40;99.90;;;;;;5033612;28;20542;-67
2021/10/26 16:47:25;;;;;;;47.92;12.38;;;11.40;99.90;;;;;;5038231;28;20108;-67
2021/10/26 16:49:51;;;;;;;53.15;12.23;;;11.40;99.90;;;;;;5048125;28;20472;-67
2021/10/26 16:52:18;;;;;;;51.35;13.63;;;11.40;99.90;;;;;;5042518;28;20087;-67
2021/10/26 16:54:44;;;;;;;56.80;15.00;;;11.40;99.90;;;;;;5033384;28;20045;-68
2021/10/26 16:57:10;;;;;;;74.72;15.77;;;11.40;99.90;;;;;;5033272;28;20044;-68
2021/10/26 16:59:37;;;;;;;52.53;15.38;;;11.40;99.90;;;;;;5049232;28;20029;-68
2021/10/26 17:02:16;;;;;;;55.90;14.88;;;11.40;99.90;;;;;;5053585;28;20031;-68
2021/10/26 17:04:41;;;;;;;58.63;15.13;;;11.40;99.90;;;;;;5050987;28;20106;-68
2021/10/26 17:07:07;;;;;;;79.47;16.73;;;11.40;99.90;;;;;;5053187;28;20467;-68
2021/10/26 17:09:36;;;;;;;58.83;14.35;;;11.40;99.90;;;;;;5046446;28;20029;-68
2021/10/26 17:12:09;;;;;;;58.22;16.25;;;11.50;99.90;;;;;;5033272;28;20033;-68
2021/10/26 17:14:36;;;;;;;45.53;14.88;;;11.50;99.90;;;;;;5044672;28;20025;-68
2021/10/26 17:17:03;;;;;;;47.75;12.85;;;11.50;99.90;;;;;;5053333;28;20037;-68
2021/10/26 17:19:29;;;;;;;52.10;15.45;;;11.50;99.90;;;;;;5040255;28;20029;-68
2021/10/26 17:21:55;;;;;;;50.65;13.80;;;11.50;99.90;;;;;;5033089;28;20025;-68
2021/10/26 17:24:20;;;;;;;58.80;16.50;;;11.50;99.90;;;;;;5043208;28;20029;-68
2021/10/26 17:26:46;;;;;;;62.65;16.17;;;11.50;99.90;;;;;;5052923;28;20100;-68
2021/10/26 17:29:11;;;;;;;64.50;15.48;;;11.50;99.90;;;;;;5052902;28;20037;-68
2021/10/26 17:31:37;;;;;;;71.32;17.33;;;11.40;99.90;;;;;;5052223;28;20500;-68
2021/10/26 17:34:03;;;;;;;63.10;16.90;;;11.50;99.90;;;;;;5048813;28;20543;-68
2021/10/26 17:36:29;;;;;;;62.10;16.40;;;11.50;99.90;;;;;;5053160;28;20124;-68
2021/10/26 17:38:56;;;;;;;51.75;16.08;;;11.40;99.90;;;;;;5050735;28;20021;-68
2021/10/26 17:41:22;;;;;;;41.33;16.90;;;11.40;99.90;;;;;;5052281;28;20032;-68
2021/10/26 17:46:18;;;;;;;54.55;17.83;;;11.40;99.90;;;;;;5031177;28;20045;-73
2021/10/26 17:48:44;;;;;;;67.00;18.65;;;11.40;99.90;;;;;;5032841;28;20018;-73
2021/10/26 17:51:11;;;;;;;44.80;18.65;;;11.40;99.90;;;;;;5017991;28;20026;-73
2021/10/26 17:53:39;;;;;;;46.00;18.85;;;11.50;99.90;;;;;;5014492;28;20021;-72
2021/10/26 17:56:07;;;;;;;55.55;19.30;;;11.40;99.90;;;;;;5016743;28;20026;-73
2021/10/26 17:58:34;;;;;;;57.33;19.02;;;11.50;99.90;;;;;;5019118;28;20022;-73
2021/10/26 18:01:00;;;;;;;60.50;21.35;;;11.50;99.90;;;;;;5016608;28;20381;-72
2021/10/26 18:03:26;;;;;;;56.15;20.48;;;11.50;99.90;;;;;;5016678;28;20435;-72
2021/10/26 18:05:53;;;;;;;57.25;21.20;;;11.50;99.90;;;;;;5032248;28;20108;-72
2021/10/26 18:08:20;;;;;;;57.20;19.95;;;11.50;99.90;;;;;;5036367;28;20026;-72
2021/10/26 18:10:47;;;;;;;49.70;19.75;;;11.50;99.90;;;;;;5026248;28;20128;-72
2021/10/26 18:13:13;;;;;;;53.40;20.67;;;11.50;99.90;;;;;;5016218;28;20373;-72
2021/10/26 18:15:39;;;;;;;53.50;19.63;;;11.50;99.90;;;;;;5031356;28;20051;-72
2021/10/26 18:18:06;;;;;;;48.00;19.75;;;11.60;99.90;;;;;;5024889;28;20392;-72
2021/10/26 18:20:32;;;;;;;50.15;19.60;;;11.60;99.90;;;;;;5016370;28;20026;-72
2021/10/26 18:22:58;;;;;;;52.60;21.25;;;11.50;99.90;;;;;;5019674;28;20025;-73
2021/10/26 18:25:24;;;;;;;50.17;19.35;;;11.50;99.90;;;;;;5025021;28;20032;-72
2021/10/26 18:27:51;;;;;;;44.17;18.63;;;11.50;99.90;;;;;;5025906;28;20029;-73
2021/10/26 18:30:18;;;;;;;52.30;20.40;;;11.50;99.90;;;;;;5023974;28;20026;-72
2021/10/26 18:32:45;;;;;;;54.78;20.42;;;11.50;99.90;;;;;;5029034;28;20109;-72
2021/10/26 18:35:13;;;;;;;47.58;21.15;;;11.50;99.90;;;;;;5026793;28;20025;-72
2021/10/26 18:37:40;;;;;;;43.50;20.77;;;11.50;99.90;;;;;;5025594;28;20369;-72
2021/10/26 18:40:10;;;;;;;47.83;21.25;;;11.50;99.90;;;;;;5025702;28;20153;-72
2021/10/26 18:42:45;;;;;;;35.50;20.60;;;11.50;99.90;;;;;;5031559;28;20463;-73
2021/10/26 18:45:19;;;;;;;43.92;22.52;;;11.50;99.90;;;;;;5030460;28;20083;-73
2021/10/26 18:47:46;;;;;;;44.58;22.10;;;11.40;99.90;;;;;;5023816;28;20461;-72
2021/10/26 18:50:15;;;;;;;56.88;24.58;;;11.40;99.90;;;;;;5029230;28;20109;-72
2021/10/26 18:52:41;;;;;;;54.80;23.85;;;11.40;99.90;;;;;;5025439;28;20022;-73
2021/10/26 18:55:09;;;;;;;45.50;23.88;;;11.50;99.90;;;;;;5022013;28;20484;-76
2021/10/26 18:57:36;;;;;;;54.83;26.33;;;11.40;99.90;;;;;;5024223;28;20037;-75
2021/10/26 19:00:03;;;;;;;52.75;28.02;;;11.40;99.90;;;;;;5023469;28;20127;-75
2021/10/26 19:02:29;;;;;;;59.47;29.27;;;11.40;99.90;;;;;;5023914;28;20511;-75
2021/10/26 19:04:55;;;;;;;63.40;28.88;;;11.40;99.90;;;;;;5025977;28;20048;-75
2021/10/26 19:07:20;;;;;;;59.33;30.05;;;11.40;99.90;;;;;;5030268;28;20034;-75
2021/10/26 19:09:46;;;;;;;62.60;31.38;;;11.40;99.90;;;;;;5026759;28;20025;-75
2021/10/26 19:12:12;;;;;;;80.47;31.33;;;11.40;99.90;;;;;;5022332;28;20041;-76
2021/10/26 19:14:39;;;;;;;79.93;31.20;;;11.30;99.90;;;;;;5029472;28;20068;-76
2021/10/26 19:17:05;;;;;;;72.35;34.13;;;11.30;99.90;;;;;;5027485;28;20416;-76
2021/10/26 19:19:31;;;;;;;79.63;35.42;;;11.30;99.90;;;;;;5027908;28;20052;-76
2021/10/26 19:21:58;;;;;;;82.93;36.88;;;11.30;99.90;;;;;;5031098;28;20026;-75
2021/10/26 19:24:25;;;;;;;91.60;39.17;;;11.30;99.90;;;;;;5023579;28;20036;-75
2021/10/26 19:26:52;;;;;;;97.88;37.95;;;11.40;99.90;;;;;;5031448;28;20493;-77
2021/10/26 19:29:18;;;;;;;87.45;40.38;;;11.40;99.90;;;;;;5027849;28;20036;-74
2021/10/26 19:31:44;;;;;;;110.72;43.45;;;11.40;99.90;;;;;;5021313;28;20068;-75
2021/10/26 19:34:11;;;;;;;111.00;46.92;;;11.40;99.90;;;;;;5031214;28;20032;-76
2021/10/26 19:36:37;;;;;;;117.55;46.75;;;11.50;99.90;;;;;;5021855;28;20084;-76
2021/10/26 19:39:04;;;;;;;110.75;45.65;;;11.40;99.90;;;;;;5030516;28;20433;-76
2021/10/26 19:41:30;;;;;;;115.68;46.50;;;11.50;99.90;;;;;;5021928;28;20049;-76
2021/10/26 19:43:56;;;;;;;110.40;42.85;;;11.50;99.90;;;;;;5022570;28;20021;-76
2021/10/26 19:46:21;;;;;;;114.22;47.15;;;11.50;99.90;;;;;;5028127;28;20935;-75
2021/10/26 19:48:47;;;;;;;127.20;48.05;;;11.50;99.90;;;;;;5022836;28;20121;-75
2021/10/26 19:51:13;;;;;;;128.80;46.33;;;11.50;99.90;;;;;;5024761;28;20088;-75
2021/10/26 19:53:39;;;;;;;139.90;46.50;;;11.50;99.90;;;;;;5027213;28;20030;-75
2021/10/26 19:56:05;;;;;;;120.82;49.45;;;11.50;99.90;;;;;;5025144;28;20022;-75
2021/10/26 19:58:31;;;;;;;122.65;48.17;;;11.50;99.90;;;;;;5027109;28;20030;-75
2021/10/26 20:00:59;;;;;;;119.30;45.08;;;11.60;99.90;;;;;;5031631;28;20113;-72
2021/10/26 20:03:27;;;;;;;124.57;48.25;;;11.60;99.90;;;;;;5023330;28;20431;-72
2021/10/26 20:05:53;;;;;;;120.78;48.47;;;11.60;99.90;;;;;;5019812;28;20029;-73
2021/10/26 20:08:20;;;;;;;119.43;46.08;;;11.60;99.90;;;;;;5026693;28;20024;-72
2021/10/26 20:10:46;;;;;;;115.97;48.40;;;11.60;99.90;;;;;;5026777;28;20385;-73
2021/10/26 20:13:12;;;;;;;118.57;46.28;;;11.60;99.90;;;;;;5032451;28;20105;-72
2021/10/26 20:15:39;;;;;;;115.82;46.85;;;11.60;99.90;;;;;;5032906;28;20381;-73
2021/10/26 20:18:05;;;;;;;116.25;47.85;;;11.60;99.90;;;;;;5031602;28;20496;-73
2021/10/26 20:26:01;;;;;;;122.32;48.72;;;11.60;99.90;;;;;;5033441;28;20060;-72
2021/10/26 20:28:32;;;;;;;122.55;47.63;;;11.60;99.90;;;;;;5032031;28;20381;-72
2021/10/26 20:30:57;;;;;;;115.35;49.25;;;11.70;99.90;;;;;;5032435;28;20369;-72
2021/10/26 20:33:26;;;;;;;100.85;46.63;;;11.70;99.90;;;;;;5033200;28;20039;-72
2021/10/26 20:36:02;;;;;;;109.43;46.50;;;11.70;99.90;;;;;;5033018;28;20039;-72
2021/10/26 20:38:29;;;;;;;116.45;45.50;;;11.60;99.90;;;;;;5033143;28;20024;-72
2021/10/26 20:40:56;;;;;;;116.68;44.05;;;11.70;99.90;;;;;;5015199;28;20036;-71
2021/10/26 20:43:21;;;;;;;122.45;44.60;;;11.60;99.90;;;;;;5032601;28;20025;-72
2021/10/26 20:45:47;;;;;;;84.65;40.15;;;11.60;99.90;;;;;;5032869;28;20045;-72
2021/10/26 20:48:13;;;;;;;89.63;38.63;;;11.60;99.90;;;;;;5033504;28;20032;-72
2021/10/26 20:50:48;;;;;;;93.32;37.90;;;11.70;99.90;;;;;;5032613;28;20064;-72
2021/10/26 20:53:14;;;;;;;76.75;35.40;;;11.60;99.90;;;;;;5032164;28;20024;-72
2021/10/26 20:55:39;;;;;;;79.88;34.58;;;11.60;99.90;;;;;;5031333;28;20021;-71
2021/10/26 20:58:05;;;;;;;77.85;33.60;;;11.60;99.90;;;;;;5014256;28;20032;-71
2021/10/26 21:00:31;;;;;;;68.20;31.45;;;11.60;99.90;;;;;;5022733;28;20022;-71
2021/10/26 21:02:56;;;;;;;70.60;29.50;;;11.60;99.90;;;;;;5033104;28;20061;-71
2021/10/26 21:05:22;;;;;;;91.63;32.13;;;11.60;99.90;;;;;;5032659;28;20018;-71
2021/10/26 21:07:47;;;;;;;76.32;32.17;;;11.60;99.90;;;;;;5015994;28;20455;-71
2021/10/26 21:10:13;;;;;;;84.97;32.33;;;11.60;99.90;;;;;;5013924;28;20545;-71
2021/10/26 21:12:38;;;;;;;75.45;31.52;;;11.60;99.90;;;;;;5023783;28;20030;-71
2021/10/26 21:15:05;;;;;;;71.35;33.63;;;11.60;99.90;;;;;;5030294;28;20459;-71
2021/10/26 21:17:31;;;;;;;70.65;30.50;;;11.60;99.90;;;;;;5032893;28;20534;-71
2021/10/26 21:19:57;;;;;;;80.82;33.00;;;11.60;99.90;;;;;;5031387;28;20033;-72
2021/10/26 21:22:23;;;;;;;92.30;34.58;;;11.60;99.90;;;;;;5033004;28;20022;-72
2021/10/26 21:24:48;;;;;;;92.32;35.70;;;11.60;99.90;;;;;;5029409;28;20026;-72
2021/10/26 21:27:15;;;;;;;90.30;34.42;;;11.60;99.90;;;;;;5014913;28;20029;-72
2021/10/26 21:29:40;;;;;;;77.15;34.63;;;11.60;99.90;;;;;;5032860;28;20018;-72
2021/10/26 21:32:09;;;;;;;73.93;34.15;;;11.60;99.90;;;;;;5036485;28;20092;-72
2021/10/26 21:34:40;;;;;;;76.43;33.47;;;11.70;99.90;;;;;;5035540;28;20055;-71
2021/10/26 21:39:40;;;;;;;86.78;35.08;;;11.70;99.90;;;;;;5037543;28;20033;-72
2021/10/26 21:42:06;;;;;;;79.18;34.88;;;11.70;99.90;;;;;;5036575;28;20037;-72
2021/10/26 21:44:32;;;;;;;103.55;41.72;;;11.70;99.90;;;;;;5034462;28;20037;-72
2021/10/26 21:46:59;;;;;;;95.82;37.38;;;11.70;99.90;;;;;;5036771;28;20026;-72
2021/10/26 21:49:26;;;;;;;81.47;36.97;;;11.70;99.90;;;;;;5017416;28;20034;-72
2021/10/26 21:51:52;;;;;;;87.28;37.47;;;11.70;99.90;;;;;;5029073;28;20026;-72
2021/10/26 21:54:19;;;;;;;98.63;36.05;;;11.70;99.90;;;;;;5016851;28;20018;-72
2021/10/26 21:56:45;;;;;;;107.13;42.17;;;11.70;99.90;;;;;;5030449;28;20091;-72
2021/10/26 21:59:10;;;;;;;125.75;42.25;;;11.70;99.90;;;;;;5036587;28;20034;-72
2021/10/26 22:01:39;;;;;;;124.90;40.42;;;11.70;99.90;;;;;;5019049;28;20030;-72
2021/10/26 22:04:06;;;;;;;126.50;43.28;;;11.70;99.90;;;;;;5016038;28;20026;-72
2021/10/26 22:06:32;;;;;;;117.28;39.90;;;11.70;99.90;;;;;;5016511;28;20076;-72
2021/10/26 22:09:00;;;;;;;91.75;36.97;;;11.70;99.90;;;;;;5016693;28;20420;-72
2021/10/26 22:11:26;;;;;;;88.50;33.97;;;11.70;99.90;;;;;;5025492;28;20484;-72
2021/10/26 22:13:51;;;;;;;120.35;35.10;;;11.70;99.90;;;;;;5036263;28;20032;-72
2021/10/26 22:16:17;;;;;;;107.05;31.73;;;11.70;99.90;;;;;;5020454;28;20022;-72
2021/10/26 22:18:43;;;;;;;95.07;30.10;;;11.70;99.90;;;;;;5016413;28;20105;-72
2021/10/26 22:21:10;;;;;;;95.80;30.85;;;11.70;99.90;;;;;;5016210;28;20068;-73
2021/10/26 22:23:37;;;;;;;112.32;28.67;;;11.70;99.90;;;;;;5016355;28;20493;-72
2021/10/26 22:26:04;;;;;;;86.32;26.98;;;11.80;99.90;;;;;;5020333;28;20033;-72
2021/10/26 22:28:30;;;;;;;97.00;25.23;;;11.80;99.90;;;;;;5031780;28;20092;-73
2021/10/26 22:30:55;;;;;;;88.13;25.33;;;11.80;99.90;;;;;;5036087;28;20021;-72
2021/10/26 22:33:22;;;;;;;88.70;24.23;;;11.80;99.90;;;;;;5035469;28;20025;-73
2021/10/26 22:35:47;;;;;;;80.80;21.55;;;11.80;99.90;;;;;;5024250;28;20104;-73
2021/10/26 22:38:13;;;;;;;72.63;19.35;;;11.80;99.90;;;;;;5016328;28;20108;-72
2021/10/26 22:40:39;;;;;;;59.63;18.60;;;11.80;99.90;;;;;;5027362;28;20036;-72
2021/10/26 22:43:05;;;;;;;90.72;19.55;;;11.80;99.90;;;;;;5016291;28;20026;-72
2021/10/26 22:45:31;;;;;;;88.55;18.38;;;11.80;99.90;;;;;;5025845;28;20447;-72
2021/10/26 22:47:57;;;;;;;69.45;15.57;;;11.90;99.90;;;;;;5035090;28;20029;-72
2021/10/26 22:50:23;;;;;;;96.15;14.45;;;11.90;99.90;;;;;;5032255;28;20052;-72
2021/10/26 22:52:48;;;;;;;75.45;16.20;;;11.90;99.90;;;;;;5015858;28;20137;-72
2021/10/26 22:55:14;;;;;;;65.50;15.73;;;12.00;99.90;;;;;;5016246;28;20026;-73
2021/10/26 22:57:41;;;;;;;61.25;13.75;;;11.90;99.90;;;;;;5027045;28;20022;-73
2021/10/26 23:00:09;;;;;;;71.75;13.60;;;12.00;99.90;;;;;;5015508;28;20084;-73
2021/10/26 23:02:37;;;;;;;80.68;14.70;;;12.00;99.90;;;;;;5015632;28;20022;-73
2021/10/26 23:05:04;;;;;;;76.95;15.80;;;12.00;99.90;;;;;;5016800;28;20084;-73
2021/10/26 23:07:29;;;;;;;84.35;13.95;;;12.00;99.90;;;;;;5019785;28;20037;-73
2021/10/26 23:09:55;;;;;;;85.40;15.27;;;12.00;99.90;;;;;;5015978;28;20022;-72
2021/10/26 23:12:21;;;;;;;76.50;13.55;;;12.00;99.90;;;;;;5028763;28;20428;-73
2021/10/26 23:14:46;;;;;;;86.40;13.98;;;12.00;99.90;;;;;;5008897;28;20026;-73
2021/10/26 23:17:13;;;;;;;54.08;12.00;;;12.10;99.90;;;;;;5015351;28;20389;-73
2021/10/26 23:19:39;;;;;;;58.63;12.80;;;12.10;99.90;;;;;;5019211;28;20080;-73
2021/10/26 23:22:04;;;;;;;75.10;11.65;;;12.10;99.90;;;;;;5035019;28;20488;-72
2021/10/26 23:24:30;;;;;;;56.38;11.52;;;12.10;99.90;;;;;;5034915;28;20104;-72
2021/10/26 23:26:56;;;;;;;78.45;12.52;;;12.10;99.90;;;;;;5034192;28;20028;-73
2021/10/26 23:29:22;;;;;;;60.42;11.68;;;12.10;99.90;;;;;;5016752;28;20451;-72
2021/10/26 23:31:48;;;;;;;65.20;11.43;;;12.20;99.90;;;;;;5015746;28;20055;-73
2021/10/26 23:34:14;;;;;;;69.45;9.93;;;12.20;99.90;;;;;;5034499;28;20025;-72
2021/10/26 23:36:40;;;;;;;67.72;11.85;;;12.30;99.90;;;;;;5030010;28;20041;-72
2021/10/26 23:39:05;;;;;;;62.95;11.02;;;12.30;99.90;;;;;;5014359;28;20895;-73
2021/10/26 23:41:31;;;;;;;63.63;9.48;;;12.30;99.90;;;;;;5015162;28;20034;-72
2021/10/26 23:43:56;;;;;;;89.00;10.68;;;12.30;99.90;;;;;;5030055;28;20068;-72
2021/10/26 23:46:22;;;;;;;65.68;9.93;;;12.30;99.90;;;;;;5018116;28;20030;-72
2021/10/26 23:48:48;;;;;;;78.20;12.25;;;12.30;99.90;;;;;;5014249;28;20026;-72
2021/10/26 23:51:13;;;;;;;94.13;12.80;;;12.40;99.90;;;;;;5016222;28;20056;-72
2021/10/26 23:53:39;;;;;;;92.82;10.38;;;12.40;99.90;;;;;;5014691;28;20026;-72
2021/10/26 23:56:04;;;;;;;70.40;12.00;;;12.40;99.90;;;;;;5023418;28;20030;-73
2021/10/26 23:58:30;;;;;;;75.63;13.50;;;12.30;99.90;;;;;;5034485;28;20337;-72
